sensor_id;sensor_type;location;lat;lon;timestamp;pressure;altitude;pressure_sealevel;temperature;humidity
75886;BME280;64561;44.018;10.144;2023-02-24T00:01:57;101527.06;;;11.20;81.68
75886;BME280;64561;44.018;10.144;2023-02-24T00:04:35;101530.50;;;11.20;82.15
75886;BME280;64561;44.018;10.144;2023-02-24T00:07:07;101533.19;;;11.25;81.92
75886;BME280;64561;44.018;10.144;2023-02-24T00:09:36;101529.94;;;11.29;81.96
75886;BME280;64561;44.018;10.144;2023-02-24T00:12:07;101531.66;;;11.30;82.14
75886;BME280;64561;44.018;10.144;2023-02-24T00:14:38;101532.59;;;11.32;82.01
75886;BME280;64561;44.018;10.144;2023-02-24T00:17:06;101524.94;;;11.34;82.04
75886;BME280;64561;44.018;10.144;2023-02-24T00:19:34;101518.06;;;11.33;82.08
75886;BME280;64561;44.018;10.144;2023-02-24T00:22:04;101510.13;;;11.25;82.16
75886;BME280;64561;44.018;10.144;2023-02-24T00:24:31;101516.91;;;11.23;82.04
75886;BME280;64561;44.018;10.144;2023-02-24T00:27:01;101519.50;;;11.25;82.08
75886;BME280;64561;44.018;10.144;2023-02-24T00:29:32;101516.19;;;11.27;82.34
75886;BME280;64561;44.018;10.144;2023-02-24T00:31:59;101511.06;;;11.27;82.30
75886;BME280;64561;44.018;10.144;2023-02-24T00:34:32;101513.53;;;11.24;81.63
75886;BME280;64561;44.018;10.144;2023-02-24T00:37:01;101516.94;;;11.25;81.82
75886;BME280;64561;44.018;10.144;2023-02-24T00:39:28;101511.94;;;11.28;81.77
75886;BME280;64561;44.018;10.144;2023-02-24T00:42:02;101507.69;;;11.28;82.14
75886;BME280;64561;44.018;10.144;2023-02-24T00:44:36;101504.34;;;11.31;81.82
75886;BME280;64561;44.018;10.144;2023-02-24T00:47:05;101502.78;;;11.34;82.34
75886;BME280;64561;44.018;10.144;2023-02-24T00:49:35;101504.41;;;11.32;81.41
75886;BME280;64561;44.018;10.144;2023-02-24T00:52:13;101507.53;;;11.24;81.47
75886;BME280;64561;44.018;10.144;2023-02-24T00:54:42;101499.00;;;11.23;81.62
75886;BME280;64561;44.018;10.144;2023-02-24T00:57:10;101503.34;;;11.26;81.61
75886;BME280;64561;44.018;10.144;2023-02-24T00:59:38;101500.03;;;11.30;81.42
75886;BME280;64561;44.018;10.144;2023-02-24T01:02:06;101500.31;;;11.37;81.82
75886;BME280;64561;44.018;10.144;2023-02-24T01:04:33;101500.31;;;11.37;81.82
75886;BME280;64561;44.018;10.144;2023-02-24T01:07:05;101494.91;;;11.30;81.77
75886;BME280;64561;44.018;10.144;2023-02-24T01:09:38;101487.13;;;11.27;81.64
75886;BME280;64561;44.018;10.144;2023-02-24T01:12:10;101489.75;;;11.28;81.46
75886;BME280;64561;44.018;10.144;2023-02-24T01:15:05;101484.75;;;11.31;81.83
75886;BME280;64561;44.018;10.144;2023-02-24T01:17:35;101479.63;;;11.31;81.61
75886;BME280;64561;44.018;10.144;2023-02-24T01:20:04;101470.25;;;11.33;81.43
75886;BME280;64561;44.018;10.144;2023-02-24T01:22:49;101472.91;;;11.36;81.73
75886;BME280;64561;44.018;10.144;2023-02-24T01:25:21;101472.88;;;11.35;81.57
75886;BME280;64561;44.018;10.144;2023-02-24T01:27:48;101466.06;;;11.35;81.45
75886;BME280;64561;44.018;10.144;2023-02-24T01:30:15;101456.66;;;11.34;81.46
75886;BME280;64561;44.018;10.144;2023-02-24T01:32:44;101453.16;;;11.32;81.39
75886;BME280;64561;44.018;10.144;2023-02-24T01:35:12;101445.22;;;11.25;81.44
75886;BME280;64561;44.018;10.144;2023-02-24T01:37:40;101439.44;;;11.30;81.18
75886;BME280;64561;44.018;10.144;2023-02-24T01:40:10;101436.75;;;11.26;81.39
75886;BME280;64561;44.018;10.144;2023-02-24T01:42:40;101435.75;;;11.22;81.59
75886;BME280;64561;44.018;10.144;2023-02-24T01:45:12;101437.13;;;11.11;81.35
75886;BME280;64561;44.018;10.144;2023-02-24T01:47:40;101430.22;;;11.08;81.58
75886;BME280;64561;44.018;10.144;2023-02-24T01:50:09;101425.03;;;11.07;81.79
75886;BME280;64561;44.018;10.144;2023-02-24T01:52:42;101431.66;;;11.00;81.98
75886;BME280;64561;44.018;10.144;2023-02-24T01:55:13;101434.09;;;10.95;81.74
75886;BME280;64561;44.018;10.144;2023-02-24T01:57:42;101432.00;;;10.84;82.25
75886;BME280;64561;44.018;10.144;2023-02-24T02:00:12;101434.50;;;10.82;82.25
75886;BME280;64561;44.018;10.144;2023-02-24T02:03:03;101434.59;;;10.85;82.02
75886;BME280;64561;44.018;10.144;2023-02-24T02:05:33;101432.09;;;10.87;82.13
75886;BME280;64561;44.018;10.144;2023-02-24T02:08:03;101441.66;;;10.92;81.79
75886;BME280;64561;44.018;10.144;2023-02-24T02:10:30;101436.53;;;10.92;81.90
75886;BME280;64561;44.018;10.144;2023-02-24T02:13:01;101434.78;;;10.91;81.89
75886;BME280;64561;44.018;10.144;2023-02-24T02:15:31;101434.88;;;10.94;81.98
75886;BME280;64561;44.018;10.144;2023-02-24T02:20:55;101427.28;;;10.97;82.09
75886;BME280;64561;44.018;10.144;2023-02-24T02:32:22;101424.34;;;10.85;81.93
75886;BME280;64561;44.018;10.144;2023-02-24T02:35:25;101414.88;;;10.83;82.28
75886;BME280;64561;44.018;10.144;2023-02-24T02:38:11;101415.81;;;10.85;82.31
75886;BME280;64561;44.018;10.144;2023-02-24T02:43:37;101420.00;;;10.83;82.46
75886;BME280;64561;44.018;10.144;2023-02-24T02:46:14;101422.50;;;10.81;82.55
75886;BME280;64561;44.018;10.144;2023-02-24T02:48:51;101414.69;;;10.76;82.36
75886;BME280;64561;44.018;10.144;2023-02-24T02:51:27;101430.09;;;10.78;82.43
75886;BME280;64561;44.018;10.144;2023-02-24T02:56:45;101430.00;;;10.75;82.62
75886;BME280;64561;44.018;10.144;2023-02-24T02:59:16;101423.16;;;10.74;83.08
75886;BME280;64561;44.018;10.144;2023-02-24T03:01:50;101421.28;;;10.70;83.05
75886;BME280;64561;44.018;10.144;2023-02-24T03:04:23;101427.25;;;10.69;82.99
75886;BME280;64561;44.018;10.144;2023-02-24T03:06:56;101425.53;;;10.69;82.91
75886;BME280;64561;44.018;10.144;2023-02-24T03:09:28;101414.53;;;10.72;82.64
75886;BME280;64561;44.018;10.144;2023-02-24T03:12:00;101421.50;;;10.76;83.33
75886;BME280;64561;44.018;10.144;2023-02-24T03:14:36;101410.28;;;10.72;83.00
75886;BME280;64561;44.018;10.144;2023-02-24T03:17:08;101416.94;;;10.67;82.68
75886;BME280;64561;44.018;10.144;2023-02-24T03:19:40;101418.53;;;10.64;83.01
75886;BME280;64561;44.018;10.144;2023-02-24T03:22:33;101416.59;;;10.57;83.11
75886;BME280;64561;44.018;10.144;2023-02-24T03:25:02;101410.44;;;10.51;83.35
75886;BME280;64561;44.018;10.144;2023-02-24T03:27:56;101402.72;;;10.50;83.24
75886;BME280;64561;44.018;10.144;2023-02-24T03:30:42;101408.84;;;10.55;83.39
75886;BME280;64561;44.018;10.144;2023-02-24T03:35:51;101408.38;;;10.67;82.34
75886;BME280;64561;44.018;10.144;2023-02-24T03:38:18;101408.59;;;10.73;82.20
75886;BME280;64561;44.018;10.144;2023-02-24T03:40:50;101406.22;;;10.79;82.52
75886;BME280;64561;44.018;10.144;2023-02-24T03:43:30;101405.53;;;10.83;82.25
75886;BME280;64561;44.018;10.144;2023-02-24T03:45:59;101397.50;;;10.72;82.09
75886;BME280;64561;44.018;10.144;2023-02-24T03:48:28;101404.09;;;10.66;81.91
75886;BME280;64561;44.018;10.144;2023-02-24T03:50:57;101403.16;;;10.64;81.89
75886;BME280;64561;44.018;10.144;2023-02-24T04:02:29;101408.19;;;10.61;81.95
75886;BME280;64561;44.018;10.144;2023-02-24T04:05:15;101409.91;;;10.62;82.15
75886;BME280;64561;44.018;10.144;2023-02-24T04:13:08;101400.69;;;10.65;81.58
75886;BME280;64561;44.018;10.144;2023-02-24T04:15:41;101402.50;;;10.69;81.42
75886;BME280;64561;44.018;10.144;2023-02-24T04:18:15;101401.94;;;10.78;81.48
75886;BME280;64561;44.018;10.144;2023-02-24T04:20:46;101401.19;;;10.81;81.90
75886;BME280;64561;44.018;10.144;2023-02-24T04:23:39;101397.84;;;10.83;81.94
75886;BME280;64561;44.018;10.144;2023-02-24T04:26:11;101397.13;;;10.87;81.79
75886;BME280;64561;44.018;10.144;2023-02-24T04:28:40;101396.34;;;10.90;81.85
75886;BME280;64561;44.018;10.144;2023-02-24T04:31:10;101398.84;;;10.88;82.08
75886;BME280;64561;44.018;10.144;2023-02-24T04:33:44;101394.56;;;10.87;81.98
75886;BME280;64561;44.018;10.144;2023-02-24T04:36:20;101389.53;;;10.90;81.80
75886;BME280;64561;44.018;10.144;2023-02-24T04:38:47;101399.00;;;10.93;81.83
75886;BME280;64561;44.018;10.144;2023-02-24T04:41:15;101398.94;;;10.91;81.66
75886;BME280;64561;44.018;10.144;2023-02-24T04:43:48;101411.13;;;10.98;81.46
75886;BME280;64561;44.018;10.144;2023-02-24T04:46:19;101410.19;;;10.96;81.79
75886;BME280;64561;44.018;10.144;2023-02-24T04:48:46;101405.84;;;10.94;81.64
75886;BME280;64561;44.018;10.144;2023-02-24T04:51:13;101398.03;;;10.89;82.21
75886;BME280;64561;44.018;10.144;2023-02-24T04:53:40;101406.69;;;10.93;82.22
75886;BME280;64561;44.018;10.144;2023-02-24T04:56:07;101411.91;;;10.96;82.04
75886;BME280;64561;44.018;10.144;2023-02-24T04:58:38;101412.75;;;10.96;82.25
75886;BME280;64561;44.018;10.144;2023-02-24T05:01:08;101408.50;;;10.97;82.26
75886;BME280;64561;44.018;10.144;2023-02-24T05:03:36;101407.69;;;10.98;82.09
75886;BME280;64561;44.018;10.144;2023-02-24T05:06:13;101405.19;;;10.99;82.12
75886;BME280;64561;44.018;10.144;2023-02-24T05:08:40;101400.06;;;10.99;82.41
75886;BME280;64561;44.018;10.144;2023-02-24T05:11:11;101398.44;;;11.02;82.15
75886;BME280;64561;44.018;10.144;2023-02-24T05:13:41;101393.41;;;11.05;81.90
75886;BME280;64561;44.018;10.144;2023-02-24T05:16:14;101397.78;;;11.09;81.59
75886;BME280;64561;44.018;10.144;2023-02-24T05:18:42;101397.78;;;11.09;81.50
75886;BME280;64561;44.018;10.144;2023-02-24T05:21:19;101392.66;;;11.09;81.93
75886;BME280;64561;44.018;10.144;2023-02-24T05:24:01;101386.69;;;11.10;82.07
75886;BME280;64561;44.018;10.144;2023-02-24T05:26:38;101377.38;;;11.12;81.67
75886;BME280;64561;44.018;10.144;2023-02-24T05:29:07;101367.13;;;11.10;81.76
75886;BME280;64561;44.018;10.144;2023-02-24T05:31:34;101370.38;;;11.06;81.58
75886;BME280;64561;44.018;10.144;2023-02-24T05:34:05;101367.59;;;10.98;81.64
75886;BME280;64561;44.018;10.144;2023-02-24T05:36:37;101367.59;;;10.98;81.58
75886;BME280;64561;44.018;10.144;2023-02-24T05:39:07;101362.47;;;10.98;81.79
75886;BME280;64561;44.018;10.144;2023-02-24T05:41:40;101358.22;;;10.99;81.78
75886;BME280;64561;44.018;10.144;2023-02-24T05:44:12;101357.88;;;10.88;81.31
75886;BME280;64561;44.018;10.144;2023-02-24T05:46:41;101361.75;;;11.03;81.67
75886;BME280;64561;44.018;10.144;2023-02-24T05:49:15;101365.84;;;10.97;81.51
75886;BME280;64561;44.018;10.144;2023-02-24T05:51:46;101353.81;;;10.95;81.28
75886;BME280;64561;44.018;10.144;2023-02-24T05:54:36;101360.59;;;10.93;81.78
75886;BME280;64561;44.018;10.144;2023-02-24T05:57:11;101378.56;;;10.94;81.58
75886;BME280;64561;44.018;10.144;2023-02-24T05:59:41;101366.41;;;10.87;81.25
75886;BME280;64561;44.018;10.144;2023-02-24T06:02:11;101360.53;;;10.91;81.61
75886;BME280;64561;44.018;10.144;2023-02-24T06:04:41;101367.25;;;10.88;81.31
75886;BME280;64561;44.018;10.144;2023-02-24T06:07:19;101365.56;;;10.88;80.83
75886;BME280;64561;44.018;10.144;2023-02-24T06:09:53;101361.38;;;10.90;80.85
75886;BME280;64561;44.018;10.144;2023-02-24T06:12:25;101368.31;;;10.94;81.13
75886;BME280;64561;44.018;10.144;2023-02-24T06:14:53;101373.53;;;10.97;80.28
75886;BME280;64561;44.018;10.144;2023-02-24T06:17:21;101371.03;;;10.99;80.51
75886;BME280;64561;44.018;10.144;2023-02-24T06:19:50;101370.28;;;11.03;80.96
75886;BME280;64561;44.018;10.144;2023-02-24T06:22:19;101370.44;;;11.08;81.15
75886;BME280;64561;44.018;10.144;2023-02-24T06:24:46;101368.75;;;11.08;81.62
75886;BME280;64561;44.018;10.144;2023-02-24T06:27:17;101376.47;;;11.10;81.36
75886;BME280;64561;44.018;10.144;2023-02-24T06:29:45;101380.78;;;11.11;81.34
75886;BME280;64561;44.018;10.144;2023-02-24T06:32:22;101378.25;;;11.12;81.65
75886;BME280;64561;44.018;10.144;2023-02-24T06:34:50;101380.03;;;11.15;81.86
75886;BME280;64561;44.018;10.144;2023-02-24T06:37:17;101376.66;;;11.16;81.75
75886;BME280;64561;44.018;10.144;2023-02-24T06:39:44;101381.88;;;11.19;82.10
75886;BME280;64561;44.018;10.144;2023-02-24T06:42:12;101379.31;;;11.19;81.79
75886;BME280;64561;44.018;10.144;2023-02-24T06:44:39;101387.88;;;11.19;82.32
75886;BME280;64561;44.018;10.144;2023-02-24T06:47:09;101379.31;;;11.19;82.28
75886;BME280;64561;44.018;10.144;2023-02-24T06:49:36;101380.97;;;11.17;81.92
75886;BME280;64561;44.018;10.144;2023-02-24T06:52:04;101385.25;;;11.18;82.30
75886;BME280;64561;44.018;10.144;2023-02-24T06:54:31;101388.06;;;11.26;82.27
75886;BME280;64561;44.018;10.144;2023-02-24T06:57:02;101395.84;;;11.29;82.99
75886;BME280;64561;44.018;10.144;2023-02-24T06:59:30;101390.81;;;11.32;82.94
75886;BME280;64561;44.018;10.144;2023-02-24T07:01:58;101389.13;;;11.34;82.00
75886;BME280;64561;44.018;10.144;2023-02-24T07:04:27;101383.31;;;11.38;80.45
75886;BME280;64561;44.018;10.144;2023-02-24T07:06:58;101383.41;;;11.42;79.80
75886;BME280;64561;44.018;10.144;2023-02-24T07:09:29;101386.16;;;11.49;78.79
75886;BME280;64561;44.018;10.144;2023-02-24T07:11:57;101387.16;;;11.52;78.15
75886;BME280;64561;44.018;10.144;2023-02-24T07:14:28;101388.44;;;11.68;77.09
75886;BME280;64561;44.018;10.144;2023-02-24T07:16:57;101390.50;;;11.81;76.61
75886;BME280;64561;44.018;10.144;2023-02-24T07:19:29;101384.69;;;11.85;76.27
75886;BME280;64561;44.018;10.144;2023-02-24T07:21:59;101382.81;;;11.81;76.52
75886;BME280;64561;44.018;10.144;2023-02-24T07:24:30;101382.03;;;11.82;76.91
75886;BME280;64561;44.018;10.144;2023-02-24T07:27:03;101378.72;;;11.86;76.24
75886;BME280;64561;44.018;10.144;2023-02-24T07:29:32;101376.16;;;11.86;75.89
75886;BME280;64561;44.018;10.144;2023-02-24T07:32:01;101384.72;;;11.87;75.66
75886;BME280;64561;44.018;10.144;2023-02-24T07:34:30;101383.88;;;11.88;75.70
75886;BME280;64561;44.018;10.144;2023-02-24T07:36:57;101379.81;;;11.95;75.01
75886;BME280;64561;44.018;10.144;2023-02-24T07:39:24;101383.19;;;11.94;75.29
75886;BME280;64561;44.018;10.144;2023-02-24T07:41:52;101383.19;;;11.94;75.28
75886;BME280;64561;44.018;10.144;2023-02-24T07:44:22;101386.69;;;11.97;74.33
75886;BME280;64561;44.018;10.144;2023-02-24T07:46:50;101383.34;;;12.00;74.13
75886;BME280;64561;44.018;10.144;2023-02-24T07:49:20;101383.53;;;12.06;73.94
75886;BME280;64561;44.018;10.144;2023-02-24T07:51:49;101387.09;;;12.11;72.49
75886;BME280;64561;44.018;10.144;2023-02-24T07:54:19;101382.81;;;12.11;72.84
75886;BME280;64561;44.018;10.144;2023-02-24T07:56:50;101385.44;;;12.13;72.81
75886;BME280;64561;44.018;10.144;2023-02-24T07:59:32;101383.75;;;12.15;72.43
75886;BME280;64561;44.018;10.144;2023-02-24T08:02:00;101380.41;;;12.18;71.97
75886;BME280;64561;44.018;10.144;2023-02-24T08:04:31;101391.53;;;12.18;71.52
75886;BME280;64561;44.018;10.144;2023-02-24T08:06:59;101389.06;;;12.21;70.72
75886;BME280;64561;44.018;10.144;2023-02-24T08:09:32;101388.34;;;12.27;70.96
75886;BME280;64561;44.018;10.144;2023-02-24T08:12:21;101388.56;;;12.34;70.56
75886;BME280;64561;44.018;10.144;2023-02-24T08:14:52;101392.19;;;12.43;70.35
75886;BME280;64561;44.018;10.144;2023-02-24T08:17:22;101392.34;;;12.49;70.62
75886;BME280;64561;44.018;10.144;2023-02-24T08:19:51;101387.16;;;12.47;72.20
75886;BME280;64561;44.018;10.144;2023-02-24T08:22:49;101392.72;;;12.64;72.87
75886;BME280;64561;44.018;10.144;2023-02-24T08:25:22;101389.31;;;12.65;70.92
75886;BME280;64561;44.018;10.144;2023-02-24T08:27:53;101392.03;;;12.71;70.36
75886;BME280;64561;44.018;10.144;2023-02-24T08:30:42;101392.19;;;12.77;69.45
75886;BME280;64561;44.018;10.144;2023-02-24T08:33:22;101393.75;;;12.72;69.32
75886;BME280;64561;44.018;10.144;2023-02-24T08:35:52;101376.78;;;12.77;68.56
75886;BME280;64561;44.018;10.144;2023-02-24T08:38:29;101390.41;;;12.75;69.12
75886;BME280;64561;44.018;10.144;2023-02-24T08:41:11;101389.69;;;12.80;68.33
75886;BME280;64561;44.018;10.144;2023-02-24T08:43:44;101394.91;;;12.84;68.81
75886;BME280;64561;44.018;10.144;2023-02-24T08:48:41;101397.59;;;12.88;68.43
75886;BME280;64561;44.018;10.144;2023-02-24T08:53:44;101396.72;;;12.88;68.84
75886;BME280;64561;44.018;10.144;2023-02-24T08:56:15;101389.09;;;12.91;68.84
75886;BME280;64561;44.018;10.144;2023-02-24T08:58:55;101389.97;;;12.93;69.04
75886;BME280;64561;44.018;10.144;2023-02-24T09:01:28;101379.84;;;12.99;68.50
75886;BME280;64561;44.018;10.144;2023-02-24T09:04:07;101382.56;;;13.05;68.53
75886;BME280;64561;44.018;10.144;2023-02-24T09:06:48;101378.41;;;13.10;67.52
75886;BME280;64561;44.018;10.144;2023-02-24T09:09:21;101372.41;;;13.11;67.28
75886;BME280;64561;44.018;10.144;2023-02-24T09:11:54;101377.34;;;13.02;67.44
75886;BME280;64561;44.018;10.144;2023-02-24T09:14:32;101370.47;;;13.01;67.75
75886;BME280;64561;44.018;10.144;2023-02-24T09:17:05;101372.28;;;13.05;68.03
75886;BME280;64561;44.018;10.144;2023-02-24T09:19:45;101370.81;;;13.15;67.41
75886;BME280;64561;44.018;10.144;2023-02-24T09:22:14;101375.03;;;13.13;67.93
75886;BME280;64561;44.018;10.144;2023-02-24T09:24:47;101370.69;;;13.10;68.04
75886;BME280;64561;44.018;10.144;2023-02-24T09:27:16;101364.63;;;13.07;67.99
75886;BME280;64561;44.018;10.144;2023-02-24T09:29:43;101372.28;;;13.05;68.01
75886;BME280;64561;44.018;10.144;2023-02-24T09:32:16;101367.88;;;12.99;68.08
75886;BME280;64561;44.018;10.144;2023-02-24T09:34:43;101366.94;;;12.96;68.54
75886;BME280;64561;44.018;10.144;2023-02-24T09:37:11;101359.09;;;12.90;69.28
75886;BME280;64561;44.018;10.144;2023-02-24T09:39:52;101363.28;;;12.85;69.62
75886;BME280;64561;44.018;10.144;2023-02-24T09:42:23;101357.22;;;12.82;68.92
75886;BME280;64561;44.018;10.144;2023-02-24T09:45:04;101363.34;;;12.88;68.72
75886;BME280;64561;44.018;10.144;2023-02-24T09:47:41;101360.13;;;12.98;68.52
75886;BME280;64561;44.018;10.144;2023-02-24T09:53:16;101369.69;;;13.03;68.17
75886;BME280;64561;44.018;10.144;2023-02-24T09:55:58;101366.31;;;13.06;67.32
75886;BME280;64561;44.018;10.144;2023-02-24T10:06:20;101370.75;;;13.13;67.71
75886;BME280;64561;44.018;10.144;2023-02-24T10:11:17;101366.66;;;13.21;67.17
75886;BME280;64561;44.018;10.144;2023-02-24T10:14:02;101360.53;;;13.16;67.98
75886;BME280;64561;44.018;10.144;2023-02-24T10:16:35;101360.78;;;13.25;67.37
75886;BME280;64561;44.018;10.144;2023-02-24T10:19:27;101360.66;;;13.22;66.98
75886;BME280;64561;44.018;10.144;2023-02-24T10:22:15;101367.69;;;13.30;67.43
75886;BME280;64561;44.018;10.144;2023-02-24T10:25:15;101364.25;;;13.27;67.25
75886;BME280;64561;44.018;10.144;2023-02-24T10:28:26;101360.66;;;13.22;67.55
75886;BME280;64561;44.018;10.144;2023-02-24T10:33:59;101357.34;;;13.26;68.13
75886;BME280;64561;44.018;10.144;2023-02-24T10:36:32;101352.13;;;13.23;68.55
75886;BME280;64561;44.018;10.144;2023-02-24T10:39:20;101353.88;;;13.24;68.71
75886;BME280;64561;44.018;10.144;2023-02-24T10:41:59;101345.13;;;13.16;69.10
75886;BME280;64561;44.018;10.144;2023-02-24T10:44:43;101342.63;;;13.19;68.85
75886;BME280;64561;44.018;10.144;2023-02-24T10:47:29;101335.63;;;13.14;69.10
75886;BME280;64561;44.018;10.144;2023-02-24T10:50:01;101344.28;;;13.17;69.43
75886;BME280;64561;44.018;10.144;2023-02-24T10:52:35;101339.13;;;13.17;68.87
75886;BME280;64561;44.018;10.144;2023-02-24T10:55:30;101335.69;;;13.15;69.19
75886;BME280;64561;44.018;10.144;2023-02-24T11:01:15;101327.97;;;13.15;69.36
75886;BME280;64561;44.018;10.144;2023-02-24T11:04:14;101319.41;;;13.15;69.23
75886;BME280;64561;44.018;10.144;2023-02-24T11:07:13;101316.78;;;13.12;69.38
75886;BME280;64561;44.018;10.144;2023-02-24T11:12:42;101310.75;;;13.11;70.13
75886;BME280;64561;44.018;10.144;2023-02-24T11:15:50;101307.28;;;13.09;69.79
75886;BME280;64561;44.018;10.144;2023-02-24T11:18:38;101302.97;;;13.08;70.11
75886;BME280;64561;44.018;10.144;2023-02-24T11:21:08;101303.16;;;13.16;69.75
75886;BME280;64561;44.018;10.144;2023-02-24T11:23:44;101292.75;;;13.10;70.15
75886;BME280;64561;44.018;10.144;2023-02-24T11:26:16;101291.03;;;13.09;70.56
75886;BME280;64561;44.018;10.144;2023-02-24T11:40:14;101269.22;;;12.91;70.37
75886;BME280;64561;44.018;10.144;2023-02-24T11:43:19;101261.53;;;12.93;71.04
75886;BME280;64561;44.018;10.144;2023-02-24T11:45:59;101255.53;;;12.92;70.10
75886;BME280;64561;44.018;10.144;2023-02-24T11:48:36;101248.69;;;12.91;69.97
75886;BME280;64561;44.018;10.144;2023-02-24T11:51:29;101252.13;;;12.93;70.16
75886;BME280;64561;44.018;10.144;2023-02-24T11:56:51;101238.44;;;12.93;69.88
75886;BME280;64561;44.018;10.144;2023-02-24T11:59:29;101229.91;;;12.94;69.59
75886;BME280;64561;44.018;10.144;2023-02-24T12:02:23;101225.69;;;12.97;69.41
75886;BME280;64561;44.018;10.144;2023-02-24T12:05:02;101216.28;;;12.98;70.04
75886;BME280;64561;44.018;10.144;2023-02-24T12:07:33;101214.56;;;12.98;69.54
75886;BME280;64561;44.018;10.144;2023-02-24T12:10:15;101211.25;;;13.04;70.44
75886;BME280;64561;44.018;10.144;2023-02-24T12:13:01;101205.28;;;13.05;70.12
75886;BME280;64561;44.018;10.144;2023-02-24T12:18:25;101202.25;;;13.24;68.50
75886;BME280;64561;44.018;10.144;2023-02-24T12:23:43;101192.97;;;13.31;69.43
75886;BME280;64561;44.018;10.144;2023-02-24T12:43:41;101148.94;;;13.61;68.44
75886;BME280;64561;44.018;10.144;2023-02-24T12:46:24;101143.81;;;13.61;67.74
75886;BME280;64561;44.018;10.144;2023-02-24T12:54:54;101130.00;;;13.56;67.83
75886;BME280;64561;44.018;10.144;2023-02-24T13:00:39;101120.75;;;13.66;67.69
75886;BME280;64561;44.018;10.144;2023-02-24T13:05:50;101123.34;;;13.67;67.57
75886;BME280;64561;44.018;10.144;2023-02-24T13:11:07;101102.72;;;13.64;67.69
75886;BME280;64561;44.018;10.144;2023-02-24T13:14:11;101106.13;;;13.63;67.26
75886;BME280;64561;44.018;10.144;2023-02-24T13:16:39;101093.22;;;13.60;68.32
75886;BME280;64561;44.018;10.144;2023-02-24T13:19:20;101102.84;;;13.73;67.88
75886;BME280;64561;44.018;10.144;2023-02-24T13:24:37;101100.50;;;13.89;66.60
75886;BME280;64561;44.018;10.144;2023-02-24T13:29:46;101093.56;;;13.83;67.51
75886;BME280;64561;44.018;10.144;2023-02-24T13:32:32;101094.50;;;13.88;66.95
75886;BME280;64561;44.018;10.144;2023-02-24T13:35:28;101086.81;;;13.90;66.39
75886;BME280;64561;44.018;10.144;2023-02-24T13:37:52;101086.88;;;13.94;67.10
75886;BME280;64561;44.018;10.144;2023-02-24T13:45:36;101067.03;;;13.84;67.78
75886;BME280;64561;44.018;10.144;2023-02-24T14:01:28;101026.88;;;13.97;67.37
75886;BME280;64561;44.018;10.144;2023-02-24T14:06:47;101021.84;;;14.06;67.33
75886;BME280;64561;44.018;10.144;2023-02-24T14:09:17;101017.63;;;14.11;67.04
75886;BME280;64561;44.018;10.144;2023-02-24T14:11:55;101022.81;;;14.14;67.64
75886;BME280;64561;44.018;10.144;2023-02-24T14:14:24;101013.41;;;14.19;66.26
75886;BME280;64561;44.018;10.144;2023-02-24T14:16:52;101017.72;;;14.17;66.13
75886;BME280;64561;44.018;10.144;2023-02-24T14:19:19;101005.66;;;14.15;66.15
75886;BME280;64561;44.018;10.144;2023-02-24T14:21:57;101009.97;;;14.14;66.55
75886;BME280;64561;44.018;10.144;2023-02-24T14:24:27;101015.94;;;14.13;66.87
75886;BME280;64561;44.018;10.144;2023-02-24T14:26:58;101014.16;;;14.11;66.80
75886;BME280;64561;44.018;10.144;2023-02-24T14:29:28;101015.91;;;14.12;66.37
75886;BME280;64561;44.018;10.144;2023-02-24T14:31:57;101010.75;;;14.10;66.59
75886;BME280;64561;44.018;10.144;2023-02-24T14:34:27;101001.38;;;14.14;65.98
75886;BME280;64561;44.018;10.144;2023-02-24T14:36:56;101007.41;;;14.17;66.94
75886;BME280;64561;44.018;10.144;2023-02-24T14:39:26;101003.13;;;14.18;67.10
75886;BME280;64561;44.018;10.144;2023-02-24T14:42:13;101010.22;;;14.40;66.16
75886;BME280;64561;44.018;10.144;2023-02-24T14:44:44;100998.16;;;14.33;66.12
75886;BME280;64561;44.018;10.144;2023-02-24T14:47:13;101005.75;;;14.23;66.36
75886;BME280;64561;44.018;10.144;2023-02-24T14:49:49;101003.16;;;14.23;66.87
75886;BME280;64561;44.018;10.144;2023-02-24T14:57:34;100991.09;;;14.15;66.99
75886;BME280;64561;44.018;10.144;2023-02-24T15:00:13;100987.66;;;14.15;66.97
75886;BME280;64561;44.018;10.144;2023-02-24T15:02:46;100992.78;;;14.15;66.71
75886;BME280;64561;44.018;10.144;2023-02-24T15:05:14;100988.47;;;14.12;66.84
75886;BME280;64561;44.018;10.144;2023-02-24T15:07:43;100967.06;;;14.15;66.79
75886;BME280;64561;44.018;10.144;2023-02-24T15:10:19;100981.56;;;14.08;66.89
75886;BME280;64561;44.018;10.144;2023-02-24T15:12:56;100982.41;;;14.06;67.13
75886;BME280;64561;44.018;10.144;2023-02-24T15:15:33;100989.22;;;14.04;67.43
75886;BME280;64561;44.018;10.144;2023-02-24T15:18:19;100995.22;;;14.04;67.27
75886;BME280;64561;44.018;10.144;2023-02-24T15:21:02;100992.72;;;14.10;67.47
75886;BME280;64561;44.018;10.144;2023-02-24T15:23:31;100990.09;;;14.03;67.44
75886;BME280;64561;44.018;10.144;2023-02-24T15:25:59;100990.03;;;14.01;67.21
75886;BME280;64561;44.018;10.144;2023-02-24T15:28:29;100990.03;;;14.01;67.47
75886;BME280;64561;44.018;10.144;2023-02-24T15:33:39;100990.81;;;13.95;67.67
75886;BME280;64561;44.018;10.144;2023-02-24T15:36:22;100986.50;;;13.90;68.05
75886;BME280;64561;44.018;10.144;2023-02-24T15:38:51;100979.59;;;13.89;68.17
75886;BME280;64561;44.018;10.144;2023-02-24T15:41:19;100961.56;;;13.86;67.89
75886;BME280;64561;44.018;10.144;2023-02-24T15:43:50;100975.34;;;13.92;67.99